Davis City, Iowa
Current Conditions -  °F | °C
As of 5:53 AM on Thursday 23 Oct 2014 (Local Time) from KLWD Reporting Station
Overcast Overcast  
Wind Chill: 52°   Ceiling: 9000
Heat Index: 52°   Visibility: 10mi
Dew Point: 47°   Wind: 8mph
Humidity: 83%   Direction: 160°SSE
Pressure: 30.07"   Gusts: NA
Location:  40.64°N, 93.81°W
Report Text: KLWD 231053Z AUTO 16007KT 10SM OVC090 11/08 A3007 RMK AO2 RAB0957E52 SLP181 P0000 T01110083
Loading
Personal Weather Stations






























Interactive Weather Map
Tropical Storm Tracking
New forecast layout! Learn more

10-Day Weather Forecast

Advertisements
Track Severe Weather on mobile